Time;durP1;ratioP1;P1;durP2;ratioP2;P2;SDS_P1;SDS_P2;PMS_P1;PMS_P2;Temp;Humidity;BMP_temperature;BMP_pressure;BME280_temperature;BME280_humidity;BME280_pressure;Samples;Min_cycle;Max_cycle;Signal;HPM_P1;HPM_P2
2023/09/01 00:02:05;;;;;;;7.57;2.50;;;;;;;25.46;47.66;96717.91;5081850;28;20024;-31
2023/09/01 00:04:30;;;;;;;5.50;2.00;;;;;;;25.35;48.08;96724.28;5080661;28;20082;-31
2023/09/01 00:06:56;;;;;;;6.72;2.45;;;;;;;25.42;47.98;96715.41;5088073;28;20028;-30
2023/09/01 00:09:21;;;;;;;8.65;2.00;;;;;;;25.45;47.97;96719.94;5080544;28;20069;-31
2023/09/01 00:11:47;;;;;;;5.45;1.98;;;;;;;25.54;47.56;96727.16;5086168;28;20458;-30
2023/09/01 00:14:12;;;;;;;3.83;1.90;;;;;;;25.49;47.79;96728.72;5083009;28;20077;-30
2023/09/01 00:16:38;;;;;;;5.55;1.88;;;;;;;25.46;48.15;96724.22;5073835;28;20466;-30
2023/09/01 00:19:03;;;;;;;7.65;2.28;;;;;;;25.46;47.80;96726.25;5081062;28;20483;-30
2023/09/01 00:21:29;;;;;;;7.78;2.65;;;;;;;25.21;48.29;96726.19;5080056;28;20031;-30
2023/09/01 00:23:54;;;;;;;7.95;2.05;;;;;;;25.38;47.79;96726.78;5080586;28;20052;-30
2023/09/01 00:26:19;;;;;;;4.90;1.95;;;;;;;25.37;47.74;96730.84;5073353;28;20024;-30
2023/09/01 00:28:45;;;;;;;5.50;1.80;;;;;;;25.48;47.45;96732.00;5081158;28;20035;-31
2023/09/01 00:31:10;;;;;;;8.88;2.30;;;;;;;25.36;47.88;96732.09;5079050;28;20381;-30
2023/09/01 00:33:36;;;;;;;7.13;2.22;;;;;;;25.36;47.75;96740.44;5082081;28;20028;-30
2023/09/01 00:36:01;;;;;;;4.43;1.70;;;;;;;25.28;48.14;96742.28;5076861;28;20024;-30
2023/09/01 00:38:29;;;;;;;6.93;1.85;;;;;;;25.48;47.58;96740.31;5076547;28;20028;-30
2023/09/01 00:40:54;;;;;;;7.07;1.80;;;;;;;25.41;48.02;96744.44;5080100;28;20064;-31
2023/09/01 00:43:20;;;;;;;4.90;1.90;;;;;;;25.17;48.49;96738.84;5073848;28;20058;-31
2023/09/01 00:45:46;;;;;;;5.45;2.10;;;;;;;25.21;48.70;96739.31;5081267;28;20546;-30
2023/09/01 00:48:14;;;;;;;5.38;1.80;;;;;;;25.37;47.89;96741.94;5083375;28;20016;-30
2023/09/01 00:50:41;;;;;;;6.18;2.10;;;;;;;25.27;48.15;96743.53;5076722;28;20036;-30
2023/09/01 00:53:07;;;;;;;5.32;2.00;;;;;;;25.35;47.83;96744.47;5074850;28;20023;-31
2023/09/01 00:55:33;;;;;;;5.47;2.33;;;;;;;25.21;48.38;96739.31;5078551;28;20033;-31
2023/09/01 00:58:02;;;;;;;7.68;2.13;;;;;;;25.05;48.86;96740.94;5080304;28;20024;-31
2023/09/01 01:00:31;;;;;;;4.93;1.88;;;;;;;25.17;48.43;96736.81;5080348;28;20028;-30
2023/09/01 01:02:57;;;;;;;5.13;1.80;;;;;;;25.06;48.60;96742.44;5079673;28;20016;-31
2023/09/01 01:05:31;;;;;;;4.32;1.92;;;;;;;25.02;48.48;96733.66;5079972;28;20047;-31
2023/09/01 01:08:20;;;;;;;6.50;2.35;;;;;;;25.11;48.80;96730.53;5080053;28;20458;-30
2023/09/01 01:11:09;;;;;;;4.90;1.92;;;;;;;25.04;48.87;96728.34;5074168;28;20031;-30
2023/09/01 01:13:39;;;;;;;5.28;2.10;;;;;;;25.05;48.69;96729.84;5080214;28;20056;-31
2023/09/01 01:16:07;;;;;;;7.82;2.40;;;;;;;24.98;48.96;96735.94;5080331;28;20024;-30
2023/09/01 01:18:36;;;;;;;7.25;2.00;;;;;;;24.86;49.34;96726.16;5085801;28;20100;-31
2023/09/01 01:21:24;;;;;;;5.13;2.33;;;;;;;24.83;49.48;96735.53;5087495;28;20024;-31
2023/09/01 01:23:52;;;;;;;3.80;2.10;;;;;;;25.07;48.95;96716.22;5083948;28;20021;-30
2023/09/01 01:26:18;;;;;;;7.82;2.53;;;;;;;25.12;48.68;96715.41;5084416;28;20024;-30
2023/09/01 01:28:44;;;;;;;6.18;2.58;;;;;;;24.81;49.69;96726.97;5079520;28;20488;-30
2023/09/01 01:31:10;;;;;;;9.18;2.20;;;;;;;24.95;49.20;96726.63;5089001;28;20091;-30
2023/09/01 01:33:52;;;;;;;7.03;2.17;;;;;;;24.89;49.40;96727.91;5084202;28;20027;-30
2023/09/01 01:36:28;;;;;;;5.82;2.05;;;;;;;24.88;49.31;96718.81;5082667;28;20115;-30
2023/09/01 01:39:06;;;;;;;7.95;2.42;;;;;;;24.96;49.26;96719.06;5078952;28;20174;-30
2023/09/01 01:41:43;;;;;;;7.13;2.20;;;;;;;24.84;49.56;96717.63;5087645;28;20040;-30
2023/09/01 01:44:12;;;;;;;9.98;3.28;;;;;;;24.96;49.36;96725.38;5076876;28;20024;-30
2023/09/01 01:46:39;;;;;;;5.25;2.25;;;;;;;24.73;49.76;96720.47;5083453;28;20096;-31
2023/09/01 01:49:10;;;;;;;7.43;2.22;;;;;;;24.73;49.70;96718.41;5079222;28;20039;-30
2023/09/01 01:51:36;;;;;;;5.47;2.03;;;;;;;24.88;49.46;96715.28;5087818;28;20032;-31
2023/09/01 01:54:02;;;;;;;7.60;2.22;;;;;;;24.68;49.73;96710.91;5084402;28;20025;-30
2023/09/01 01:56:28;;;;;;;5.32;2.05;;;;;;;24.92;49.07;96710.22;5083905;28;20020;-30
2023/09/01 01:58:53;;;;;;;7.82;2.70;;;;;;;24.81;49.49;96713.09;5083747;28;20031;-30
2023/09/01 02:01:19;;;;;;;6.22;2.95;;;;;;;24.80;49.57;96719.91;5084062;28;20497;-31
2023/09/01 02:03:44;;;;;;;5.57;2.00;;;;;;;24.60;49.94;96726.59;5083567;28;20016;-30
2023/09/01 02:06:10;;;;;;;7.82;2.33;;;;;;;24.60;50.09;96730.09;5083866;28;20107;-30
2023/09/01 02:08:35;;;;;;;7.07;2.05;;;;;;;24.75;49.71;96731.78;5086522;28;20461;-30
2023/09/01 02:11:01;;;;;;;8.05;2.55;;;;;;;24.81;49.60;96730.50;5079347;28;20363;-30
2023/09/01 02:13:26;;;;;;;8.13;2.30;;;;;;;24.69;49.38;96734.59;5083152;28;20034;-31
2023/09/01 02:15:53;;;;;;;5.45;1.95;;;;;;;24.68;49.43;96733.84;5083540;28;20058;-31
2023/09/01 02:18:18;;;;;;;6.60;2.15;;;;;;;24.45;50.12;96726.91;5082803;28;20032;-30
2023/09/01 02:20:44;;;;;;;10.02;2.45;;;;;;;24.65;49.93;96725.78;5075784;28;20354;-30
2023/09/01 02:23:09;;;;;;;7.60;2.38;;;;;;;24.79;49.42;96724.69;5083235;28;20020;-30
2023/09/01 02:25:37;;;;;;;5.38;2.30;;;;;;;24.66;49.90;96728.06;5077373;28;20035;-30
2023/09/01 02:28:04;;;;;;;11.32;2.90;;;;;;;24.71;49.79;96732.06;5085793;28;20043;-30
2023/09/01 02:30:30;;;;;;;5.68;1.90;;;;;;;24.81;49.39;96729.72;5077075;28;20078;-30
2023/09/01 02:32:56;;;;;;;10.32;2.47;;;;;;;24.78;49.67;96736.31;5090043;28;20027;-32
2023/09/01 02:35:21;;;;;;;6.60;2.00;;;;;;;24.90;49.12;96740.50;5082688;28;20389;-30
2023/09/01 02:37:49;;;;;;;7.07;2.10;;;;;;;24.92;49.22;96735.19;5082489;28;20026;-30
2023/09/01 02:40:15;;;;;;;6.88;2.92;;;;;;;24.91;49.48;96728.91;5083113;28;20048;-30
2023/09/01 02:42:41;;;;;;;5.22;2.58;;;;;;;24.93;49.40;96733.97;5082334;28;20462;-30
2023/09/01 02:45:09;;;;;;;9.05;3.17;;;;;;;24.77;49.93;96732.00;5085918;28;20024;-30
2023/09/01 02:47:35;;;;;;;5.05;2.28;;;;;;;24.82;49.37;96737.53;5085692;28;20024;-30
2023/09/01 02:50:02;;;;;;;6.78;2.40;;;;;;;24.69;49.72;96740.91;5083003;28;20458;-30
2023/09/01 02:52:28;;;;;;;6.93;2.58;;;;;;;24.91;49.56;96737.22;5082711;28;20020;-30
2023/09/01 02:54:55;;;;;;;5.55;2.35;;;;;;;24.88;49.48;96740.25;5083446;28;20028;-30
2023/09/01 02:57:21;;;;;;;6.32;2.20;;;;;;;25.01;48.93;96738.44;5079132;28;20024;-30
2023/09/01 02:59:46;;;;;;;7.07;2.38;;;;;;;24.79;49.49;96735.78;5085516;28;20016;-30
2023/09/01 03:02:12;;;;;;;4.60;2.67;;;;;;;24.68;49.74;96728.28;5076624;28;20068;-30
2023/09/01 03:04:37;;;;;;;7.50;2.42;;;;;;;24.73;49.77;96723.25;5086204;28;20055;-30
2023/09/01 03:07:03;;;;;;;5.25;2.30;;;;;;;24.72;49.94;96732.81;5077321;28;20027;-31
2023/09/01 03:09:28;;;;;;;6.75;2.50;;;;;;;24.93;49.38;96739.50;5082297;28;20024;-30
2023/09/01 03:11:54;;;;;;;6.00;2.47;;;;;;;24.86;49.46;96734.47;5088292;28;20020;-30
2023/09/01 03:14:19;;;;;;;9.70;2.22;;;;;;;24.64;50.26;96738.16;5083410;28;20366;-30
2023/09/01 03:16:44;;;;;;;7.18;2.33;;;;;;;24.72;49.91;96741.16;5082147;28;20493;-30
2023/09/01 03:19:10;;;;;;;6.22;2.35;;;;;;;24.77;49.75;96735.53;5073243;28;20016;-30
2023/09/01 03:21:36;;;;;;;10.93;2.58;;;;;;;24.82;49.56;96734.78;5074557;28;20021;-30
2023/09/01 03:24:02;;;;;;;11.60;2.58;;;;;;;24.79;49.76;96726.72;5080603;28;20489;-30
2023/09/01 03:26:31;;;;;;;7.18;2.13;;;;;;;24.57;50.14;96722.81;5081602;28;20027;-30
2023/09/01 03:28:56;;;;;;;7.22;2.67;;;;;;;24.57;50.17;96725.59;5081615;28;20036;-30
2023/09/01 03:31:22;;;;;;;6.28;2.22;;;;;;;24.73;49.92;96731.56;5081868;28;20020;-30
2023/09/01 03:33:47;;;;;;;5.82;2.35;;;;;;;24.58;50.13;96729.13;5083748;28;20162;-30
2023/09/01 03:36:13;;;;;;;6.45;2.47;;;;;;;24.84;49.59;96740.56;5087261;28;20039;-30
2023/09/01 03:38:39;;;;;;;5.85;2.70;;;;;;;24.72;50.03;96739.13;5074755;28;20028;-30
2023/09/01 03:41:05;;;;;;;9.32;2.45;;;;;;;24.76;49.78;96747.16;5077373;28;20051;-31
2023/09/01 03:43:31;;;;;;;8.65;2.20;;;;;;;24.83;49.52;96739.06;5085199;28;20069;-30
2023/09/01 03:46:00;;;;;;;5.47;2.40;;;;;;;24.82;49.54;96747.88;5074177;28;20028;-30
2023/09/01 03:48:26;;;;;;;8.45;2.40;;;;;;;24.71;50.11;96737.63;5074173;28;20138;-30
2023/09/01 03:51:16;;;;;;;6.07;2.33;;;;;;;24.75;49.74;96748.41;5081661;28;20020;-30
2023/09/01 03:53:42;;;;;;;7.28;2.70;;;;;;;24.82;49.65;96739.56;5081505;28;20019;-30
2023/09/01 03:56:09;;;;;;;7.63;2.65;;;;;;;24.83;49.54;96744.59;5081710;28;20032;-30
2023/09/01 03:58:35;;;;;;;7.75;2.20;;;;;;;24.70;49.76;96745.19;5081032;28;20029;-30
2023/09/01 04:01:00;;;;;;;5.45;2.42;;;;;;;24.80;49.67;96740.06;5081841;28;20035;-30
2023/09/01 04:03:26;;;;;;;10.20;2.65;;;;;;;24.85;49.70;96749.63;5077659;28;20470;-31
2023/09/01 04:06:00;;;;;;;7.97;2.47;;;;;;;24.79;49.57;96754.44;5078114;28;20073;-30
2023/09/01 04:08:25;;;;;;;7.32;2.25;;;;;;;24.77;49.93;96751.44;5083466;28;20071;-30
2023/09/01 04:10:51;;;;;;;8.57;2.40;;;;;;;24.68;50.06;96752.50;5084408;28;20480;-30
2023/09/01 04:13:16;;;;;;;10.50;2.70;;;;;;;24.74;49.99;96758.00;5082530;28;20428;-30
2023/09/01 04:15:42;;;;;;;7.18;2.55;;;;;;;24.64;49.88;96754.78;5080055;28;20036;-30
2023/09/01 04:18:08;;;;;;;7.53;2.53;;;;;;;24.60;49.99;96755.03;5080873;28;20069;-30
2023/09/01 04:20:33;;;;;;;6.05;2.08;;;;;;;24.81;49.51;96757.47;5075703;28;20066;-30
2023/09/01 04:22:59;;;;;;;4.93;2.20;;;;;;;24.87;49.63;96756.16;5084704;28;20020;-30
2023/09/01 04:25:24;;;;;;;9.45;2.72;;;;;;;24.80;49.72;96751.16;5074952;28;20020;-30
2023/09/01 04:27:50;;;;;;;6.50;2.45;;;;;;;24.76;49.74;96749.94;5086656;28;20028;-30
2023/09/01 04:30:15;;;;;;;4.13;2.03;;;;;;;24.72;50.17;96743.91;5073251;28;20027;-31
2023/09/01 04:32:43;;;;;;;6.10;2.50;;;;;;;24.82;49.50;96747.88;5082123;28;20016;-30
2023/09/01 04:35:10;;;;;;;7.43;2.63;;;;;;;24.61;50.09;96748.22;5079141;28;20024;-30
2023/09/01 04:37:35;;;;;;;9.43;2.70;;;;;;;24.60;50.28;96752.28;5087961;28;20024;-32
2023/09/01 04:40:06;;;;;;;6.00;2.33;;;;;;;24.61;50.17;96753.03;5080249;28;20490;-31
2023/09/01 04:42:31;;;;;;;8.75;2.40;;;;;;;24.49;50.37;96748.81;5080343;28;20101;-30
2023/09/01 04:44:57;;;;;;;7.35;2.80;;;;;;;24.69;49.83;96751.22;5082576;28;20063;-30
2023/09/01 04:47:23;;;;;;;8.75;2.38;;;;;;;24.62;50.03;96749.75;5083776;28;20039;-30
2023/09/01 04:49:49;;;;;;;7.93;1.83;;;;;;;24.66;50.20;96755.78;5083259;28;20031;-30
2023/09/01 04:52:14;;;;;;;6.00;2.00;;;;;;;24.63;49.86;96754.03;5079686;28;20017;-30
2023/09/01 04:54:40;;;;;;;7.00;2.60;;;;;;;24.67;50.00;96759.31;5079720;28;20378;-30
2023/09/01 04:57:05;;;;;;;9.38;2.53;;;;;;;24.68;49.99;96761.56;5081089;28;20081;-30
2023/09/01 04:59:32;;;;;;;7.72;2.05;;;;;;;24.49;50.28;96759.91;5078171;28;20062;-30
2023/09/01 05:01:59;;;;;;;8.07;2.78;;;;;;;24.54;50.23;96756.34;5082701;28;20024;-30
2023/09/01 05:04:25;;;;;;;7.53;3.13;;;;;;;24.53;50.65;96749.28;5080101;28;20377;-31
2023/09/01 05:06:50;;;;;;;10.95;3.85;;;;;;;24.54;50.25;96762.66;5086889;28;20036;-31
2023/09/01 05:09:16;;;;;;;16.05;4.88;;;;;;;24.44;50.67;96757.91;5080750;28;20028;-30
2023/09/01 05:11:42;;;;;;;16.17;5.03;;;;;;;24.47;50.67;96757.66;5071841;28;20023;-31
2023/09/01 05:14:07;;;;;;;15.30;4.22;;;;;;;24.42;50.64;96755.66;5079819;28;20017;-30
2023/09/01 05:16:33;;;;;;;13.65;4.10;;;;;;;24.65;50.12;96762.59;5080310;28;20046;-30
2023/09/01 05:18:58;;;;;;;9.65;3.20;;;;;;;24.55;50.48;96768.94;5079191;28;20020;-30
2023/09/01 05:21:24;;;;;;;7.45;3.38;;;;;;;24.57;50.25;96767.19;5081292;28;20024;-31
2023/09/01 05:23:49;;;;;;;10.18;2.67;;;;;;;24.65;50.09;96768.13;5079569;28;20028;-30
2023/09/01 05:26:15;;;;;;;5.70;2.40;;;;;;;24.72;50.13;96771.66;5079893;28;20027;-30
2023/09/01 05:28:41;;;;;;;5.45;2.42;;;;;;;24.76;50.00;96778.41;5075620;28;20025;-30
2023/09/01 05:31:06;;;;;;;8.07;2.30;;;;;;;24.86;49.74;96778.84;5085094;28;20090;-31
2023/09/01 05:33:31;;;;;;;8.75;2.22;;;;;;;24.78;50.34;96783.44;5071513;28;20550;-30
2023/09/01 05:35:57;;;;;;;7.63;1.98;;;;;;;24.78;50.52;96780.69;5087210;28;20032;-30
2023/09/01 05:38:22;;;;;;;6.22;2.10;;;;;;;24.80;50.53;96775.38;5079977;28;20024;-30
2023/09/01 05:40:56;;;;;;;11.48;2.22;;;;;;;24.90;49.87;96777.31;5087205;28;20476;-31
2023/09/01 05:43:22;;;;;;;7.07;2.20;;;;;;;24.86;50.04;96784.41;5072886;28;20016;-30
2023/09/01 05:45:47;;;;;;;7.75;2.10;;;;;;;24.76;50.47;96783.22;5073778;28;20374;-30
2023/09/01 05:48:13;;;;;;;6.15;2.22;;;;;;;24.70;50.38;96781.22;5079440;28;20012;-30
2023/09/01 05:50:39;;;;;;;4.40;2.10;;;;;;;24.73;50.41;96789.81;5071548;28;20054;-30
2023/09/01 05:53:04;;;;;;;7.43;1.98;;;;;;;24.74;50.17;96782.97;5072054;28;20165;-31
2023/09/01 05:55:29;;;;;;;7.07;1.90;;;;;;;24.87;49.82;96788.69;5078020;28;20469;-30
2023/09/01 05:57:55;;;;;;;6.38;2.60;;;;;;;24.93;49.91;96792.97;5075140;28;20451;-30
2023/09/01 06:00:21;;;;;;;5.15;1.85;;;;;;;25.05;49.44;96794.41;5079604;28;20012;-31
2023/09/01 06:02:46;;;;;;;8.35;2.30;;;;;;;24.95;49.59;96796.00;5078925;28;20056;-30
2023/09/01 06:05:12;;;;;;;7.25;1.90;;;;;;;24.85;49.99;96796.78;5078039;28;20122;-31
2023/09/01 06:07:37;;;;;;;9.43;2.20;;;;;;;24.84;49.91;96793.28;5089690;28;20073;-31
2023/09/01 06:10:04;;;;;;;6.68;2.33;;;;;;;24.94;49.95;96797.28;5083062;28;20032;-30
2023/09/01 06:12:29;;;;;;;5.97;2.20;;;;;;;25.03;49.63;96796.19;5090756;28;20107;-30
2023/09/01 06:14:55;;;;;;;7.53;2.10;;;;;;;24.93;49.98;96798.53;5083255;28;20023;-30
2023/09/01 06:17:20;;;;;;;4.88;1.77;;;;;;;25.06;49.71;96792.41;5090371;28;20043;-30
2023/09/01 06:19:46;;;;;;;5.15;1.73;;;;;;;24.87;49.96;96799.78;5083144;28;20019;-31
2023/09/01 06:22:11;;;;;;;5.95;1.85;;;;;;;25.10;49.59;96792.88;5076056;28;20506;-30
2023/09/01 06:24:36;;;;;;;6.93;1.90;;;;;;;24.99;49.80;96792.94;5083907;28;20101;-30
2023/09/01 06:27:03;;;;;;;5.18;1.92;;;;;;;25.04;49.34;96794.94;5083195;28;20120;-30
2023/09/01 06:29:28;;;;;;;5.72;1.75;;;;;;;25.18;49.27;96802.16;5082938;28;20466;-30
2023/09/01 06:31:54;;;;;;;4.68;2.10;;;;;;;25.16;49.30;96804.69;5086426;28;20020;-30
2023/09/01 06:34:20;;;;;;;5.40;1.90;;;;;;;25.18;49.53;96807.72;5079220;28;20051;-30
2023/09/01 06:36:46;;;;;;;4.70;1.65;;;;;;;25.18;49.10;96804.94;5082929;28;20027;-30
2023/09/01 06:39:11;;;;;;;6.30;1.90;;;;;;;24.83;49.98;96813.19;5080173;28;20040;-30
2023/09/01 06:41:37;;;;;;;4.22;1.83;;;;;;;24.95;50.06;96811.91;5085303;28;20072;-30
2023/09/01 06:44:02;;;;;;;4.90;2.00;;;;;;;25.08;49.51;96811.31;5086422;28;20062;-31
2023/09/01 06:46:28;;;;;;;7.55;2.20;;;;;;;25.14;49.43;96807.22;5085757;28;20073;-30
2023/09/01 06:48:53;;;;;;;4.72;2.10;;;;;;;25.19;49.33;96814.78;5075651;28;20431;-30
2023/09/01 06:51:19;;;;;;;4.25;2.10;;;;;;;25.24;49.54;96811.19;5085968;28;20072;-31
2023/09/01 06:53:44;;;;;;;8.05;3.80;;;;;;;25.14;49.44;96810.00;5077154;28;20473;-31
2023/09/01 06:56:10;;;;;;;9.25;4.22;;;;;;;25.03;49.62;96813.59;5089918;28;20020;-30
2023/09/01 06:58:35;;;;;;;17.85;9.95;;;;;;;25.04;50.03;96808.81;5082778;28;20078;-30
2023/09/01 07:01:11;;;;;;;20.25;12.57;;;;;;;25.16;49.60;96812.25;5082496;28;20044;-31
2023/09/01 07:03:36;;;;;;;18.40;12.27;;;;;;;25.23;49.39;96811.69;5082959;28;20020;-30
2023/09/01 07:06:03;;;;;;;13.40;8.52;;;;;;;25.16;49.40;96815.03;5082563;28;20039;-31
2023/09/01 07:08:29;;;;;;;11.77;6.55;;;;;;;25.10;49.75;96819.88;5082398;28;20012;-31
2023/09/01 07:11:03;;;;;;;7.65;5.10;;;;;;;25.27;49.19;96824.03;5082458;28;20393;-30
2023/09/01 07:13:30;;;;;;;8.63;3.92;;;;;;;25.39;49.27;96828.25;5082733;28;20025;-30
2023/09/01 07:15:55;;;;;;;11.10;4.20;;;;;;;25.40;48.91;96824.22;5081388;28;20485;-30
2023/09/01 07:18:22;;;;;;;6.00;2.45;;;;;;;25.26;49.35;96835.66;5081929;28;20070;-30
2023/09/01 07:20:49;;;;;;;6.55;2.90;;;;;;;25.48;48.36;96840.28;5082665;28;20024;-30
2023/09/01 07:23:15;;;;;;;7.55;2.42;;;;;;;25.30;48.89;96841.69;5074717;28;20028;-30
2023/09/01 07:25:42;;;;;;;4.70;2.10;;;;;;;25.39;48.17;96839.34;5089326;28;20016;-30
2023/09/01 07:28:07;;;;;;;7.03;2.20;;;;;;;25.43;48.54;96844.63;5081923;28;20036;-31
2023/09/01 07:30:33;;;;;;;4.72;1.77;;;;;;;25.42;48.13;96843.88;5089238;28;20024;-30
2023/09/01 07:33:00;;;;;;;4.80;2.10;;;;;;;25.26;48.74;96838.44;5074784;28;20016;-31
2023/09/01 07:35:25;;;;;;;8.05;2.05;;;;;;;25.23;48.40;96845.00;5089082;28;20024;-30
2023/09/01 07:37:50;;;;;;;6.47;3.10;;;;;;;25.59;47.91;96845.78;5076756;28;20020;-31
2023/09/01 07:40:16;;;;;;;6.97;2.22;;;;;;;25.35;48.10;96849.22;5084630;28;20074;-31
2023/09/01 07:42:41;;;;;;;2.78;1.85;;;;;;;25.46;47.86;96854.72;5083714;28;20108;-30
2023/09/01 07:45:07;;;;;;;3.65;2.00;;;;;;;25.55;47.42;96853.63;5081813;28;20591;-31
2023/09/01 07:47:33;;;;;;;4.90;2.22;;;;;;;25.53;47.25;96850.63;5074390;28;20024;-30
2023/09/01 07:49:58;;;;;;;8.80;2.33;;;;;;;25.32;47.73;96851.03;5075911;28;20027;-31
2023/09/01 07:52:25;;;;;;;6.13;1.73;;;;;;;25.59;47.13;96852.06;5084348;28;20019;-30
2023/09/01 07:54:51;;;;;;;4.20;2.15;;;;;;;25.66;47.25;96848.78;5083515;28;20153;-31
2023/09/01 07:57:16;;;;;;;5.88;1.80;;;;;;;25.68;47.29;96851.03;5084032;28;20462;-31
2023/09/01 07:59:41;;;;;;;5.80;1.90;;;;;;;25.62;47.12;96848.28;5078232;28;20024;-31
2023/09/01 08:02:07;;;;;;;7.13;1.70;;;;;;;25.56;47.02;96847.56;5081425;28;20031;-30
2023/09/01 08:04:32;;;;;;;6.03;1.95;;;;;;;25.84;46.41;96847.34;5081372;28;20028;-30
2023/09/01 08:06:59;;;;;;;4.90;1.70;;;;;;;25.82;46.77;96844.38;5073903;28;20536;-31
2023/09/01 08:09:26;;;;;;;5.47;2.13;;;;;;;25.58;47.44;96850.59;5083336;28;20108;-30
2023/09/01 08:11:51;;;;;;;4.65;1.60;;;;;;;25.65;46.65;96849.28;5078234;28;20527;-30
2023/09/01 08:14:17;;;;;;;3.92;1.85;;;;;;;25.94;46.75;96847.78;5081066;28;20032;-31
2023/09/01 08:16:42;;;;;;;5.40;1.83;;;;;;;25.76;46.96;96849.94;5077831;28;20481;-30
2023/09/01 08:19:08;;;;;;;4.85;2.05;;;;;;;25.83;46.53;96843.09;5077591;28;20378;-30
2023/09/01 08:21:33;;;;;;;5.40;2.05;;;;;;;26.10;46.09;96844.84;5082707;28;20142;-30
2023/09/01 08:23:59;;;;;;;6.03;1.90;;;;;;;26.03;46.31;96850.22;5084144;28;20024;-30
2023/09/01 08:26:25;;;;;;;5.30;2.08;;;;;;;26.11;46.32;96853.94;5075190;28;20066;-31
2023/09/01 08:28:51;;;;;;;4.93;2.10;;;;;;;25.92;46.10;96847.56;5081308;28;20427;-31
2023/09/01 08:31:16;;;;;;;5.07;1.90;;;;;;;25.97;46.02;96853.03;5080107;28;20520;-30
2023/09/01 08:33:43;;;;;;;4.50;1.80;;;;;;;26.01;45.90;96853.53;5080807;28;20066;-30
2023/09/01 08:36:09;;;;;;;3.95;1.50;;;;;;;26.09;46.08;96854.44;5078104;28;20059;-30
2023/09/01 08:38:35;;;;;;;4.72;1.92;;;;;;;25.90;46.74;96859.19;5083110;28;20051;-30
2023/09/01 08:41:01;;;;;;;6.55;2.17;;;;;;;26.02;46.60;96846.69;5075851;28;20040;-30
2023/09/01 08:43:34;;;;;;;5.80;2.00;;;;;;;26.13;45.73;96854.16;5077994;28;20048;-30
2023/09/01 08:46:02;;;;;;;3.25;1.83;;;;;;;26.25;45.91;96850.00;5083090;28;20111;-30
2023/09/01 08:48:27;;;;;;;4.30;2.05;;;;;;;26.28;45.70;96845.47;5077887;28;20036;-30
2023/09/01 08:50:54;;;;;;;4.35;1.80;;;;;;;26.13;46.10;96851.38;5080759;28;20020;-30
2023/09/01 08:53:21;;;;;;;3.63;1.75;;;;;;;26.23;45.79;96847.00;5079605;28;20032;-31
2023/09/01 08:55:46;;;;;;;5.65;2.10;;;;;;;26.26;45.49;96850.75;5080630;28;20363;-31
2023/09/01 08:58:12;;;;;;;5.72;2.05;;;;;;;26.30;45.99;96851.25;5080554;28;20088;-30
2023/09/01 09:00:37;;;;;;;5.40;2.42;;;;;;;26.22;46.31;96853.06;5080294;28;20021;-30
2023/09/01 09:03:05;;;;;;;3.88;1.65;;;;;;;26.27;46.23;96852.25;5080327;28;20023;-30
2023/09/01 09:05:33;;;;;;;5.28;1.70;;;;;;;26.34;46.42;96855.25;5080758;28;20021;-30
2023/09/01 09:08:05;;;;;;;4.82;1.85;;;;;;;26.30;46.43;96856.81;5080393;28;20024;-30
2023/09/01 09:10:36;;;;;;;3.35;2.20;;;;;;;26.45;46.22;96851.59;5083227;28;20034;-31
2023/09/01 09:13:19;;;;;;;7.35;1.80;;;;;;;26.37;46.04;96868.09;5083690;28;20422;-31
2023/09/01 09:15:44;;;;;;;6.68;1.75;;;;;;;26.26;46.22;96864.66;5080769;28;20021;-30
2023/09/01 09:18:09;;;;;;;8.50;2.17;;;;;;;26.45;46.15;96866.25;5079922;28;20530;-30
2023/09/01 09:20:38;;;;;;;5.95;1.60;;;;;;;26.55;46.07;96861.09;5082217;28;20495;-30
2023/09/01 09:23:03;;;;;;;5.07;2.05;;;;;;;26.29;46.52;96858.09;5084682;28;20036;-31
2023/09/01 09:25:33;;;;;;;5.05;1.77;;;;;;;26.29;46.45;96855.31;5087383;28;20024;-31
2023/09/01 09:28:00;;;;;;;3.42;1.73;;;;;;;26.31;46.04;96850.75;5071296;28;20103;-31
2023/09/01 09:30:27;;;;;;;5.57;1.73;;;;;;;26.45;45.66;96865.50;5087591;28;20376;-30
2023/09/01 09:33:03;;;;;;;3.83;1.52;;;;;;;26.57;45.85;96853.00;5080058;28;20025;-31
2023/09/01 09:35:29;;;;;;;6.07;2.00;;;;;;;26.47;46.41;96854.59;5079906;28;20025;-30
2023/09/01 09:37:59;;;;;;;5.03;1.70;;;;;;;26.52;45.77;96864.91;5088702;28;20131;-30
2023/09/01 09:40:25;;;;;;;4.80;2.00;;;;;;;26.48;45.91;96856.84;5083890;28;20106;-30
2023/09/01 09:42:51;;;;;;;6.07;2.10;;;;;;;26.58;45.88;96865.59;5076593;28;20400;-30
2023/09/01 09:45:29;;;;;;;5.60;1.98;;;;;;;26.57;45.74;96861.34;5084253;28;20401;-30
2023/09/01 09:47:57;;;;;;;3.83;2.03;;;;;;;26.62;45.97;96860.50;5083716;28;20489;-30
2023/09/01 09:50:24;;;;;;;5.72;1.80;;;;;;;26.73;45.22;96854.78;5088805;28;20474;-30
2023/09/01 09:52:56;;;;;;;4.80;1.80;;;;;;;26.73;45.44;96859.59;5078583;28;20025;-30
2023/09/01 09:55:28;;;;;;;4.07;1.60;;;;;;;26.72;45.01;96861.63;5080804;28;20031;-30
2023/09/01 09:58:02;;;;;;;4.00;2.00;;;;;;;26.64;45.23;96857.94;5085532;28;20039;-30
2023/09/01 10:00:30;;;;;;;5.05;1.80;;;;;;;26.69;45.57;96865.50;5083704;28;20017;-30
2023/09/01 10:03:00;;;;;;;5.97;2.10;;;;;;;26.76;44.94;96858.56;5083023;28;20036;-31
2023/09/01 10:05:30;;;;;;;6.07;2.13;;;;;;;26.75;45.27;96863.38;5079285;28;20101;-30
2023/09/01 10:07:57;;;;;;;3.45;1.65;;;;;;;26.71;45.24;96860.13;5087546;28;20249;-30
2023/09/01 10:10:23;;;;;;;2.88;1.60;;;;;;;26.74;45.27;96853.53;5083879;28;20032;-30
2023/09/01 10:12:50;;;;;;;4.38;1.60;;;;;;;26.66;45.05;96852.63;5081014;28;20069;-30
2023/09/01 10:15:17;;;;;;;5.05;1.50;;;;;;;26.65;45.29;96853.91;5084654;28;20116;-31
2023/09/01 10:17:46;;;;;;;5.95;1.85;;;;;;;26.75;45.12;96852.25;5075909;28;20035;-30
2023/09/01 10:20:12;;;;;;;3.20;1.50;;;;;;;26.76;45.11;96856.53;5083120;28;20482;-31
2023/09/01 10:22:38;;;;;;;5.03;1.60;;;;;;;26.77;44.60;96855.25;5083423;28;20019;-30
2023/09/01 10:25:19;;;;;;;5.93;1.85;;;;;;;26.92;44.01;96854.81;5076257;28;20059;-31
2023/09/01 10:28:07;;;;;;;4.80;1.60;;;;;;;26.80;44.33;96840.31;5090678;28;20024;-30
2023/09/01 10:30:34;;;;;;;4.75;1.77;;;;;;;26.85;44.11;96849.84;5090064;28;20384;-30
2023/09/01 10:33:05;;;;;;;4.28;2.25;;;;;;;26.69;44.06;96843.22;5079734;28;20020;-30
2023/09/01 10:35:53;;;;;;;3.92;1.90;;;;;;;27.01;43.75;96842.59;5077962;28;20498;-30
2023/09/01 10:38:22;;;;;;;5.10;1.60;;;;;;;26.94;44.33;96841.16;5082480;28;20024;-31
2023/09/01 10:40:49;;;;;;;4.78;1.73;;;;;;;26.86;44.02;96843.00;5077650;28;20044;-31
2023/09/01 10:43:33;;;;;;;4.43;1.70;;;;;;;26.88;44.01;96840.44;5088249;28;20032;-31
2023/09/01 10:46:14;;;;;;;4.50;1.40;;;;;;;27.02;44.10;96835.75;5089872;28;20019;-30
2023/09/01 10:48:51;;;;;;;2.90;1.50;;;;;;;26.88;43.99;96837.66;5075318;28;20020;-31
2023/09/01 10:51:18;;;;;;;4.25;1.55;;;;;;;26.83;43.78;96842.00;5078641;28;20473;-30
2023/09/01 10:53:45;;;;;;;3.40;1.52;;;;;;;26.87;43.63;96843.75;5086086;28;20446;-30
2023/09/01 10:56:15;;;;;;;3.80;1.50;;;;;;;26.93;43.16;96845.22;5083326;28;20059;-30
2023/09/01 10:58:43;;;;;;;4.28;1.40;;;;;;;26.94;43.23;96840.41;5088698;28;20051;-31
2023/09/01 11:01:38;;;;;;;4.40;1.45;;;;;;;26.88;43.18;96848.03;5075583;28;20029;-30
2023/09/01 11:04:15;;;;;;;3.05;1.50;;;;;;;26.94;42.78;96834.84;5083147;28;20038;-31
2023/09/01 11:06:56;;;;;;;3.95;1.70;;;;;;;26.99;42.90;96837.53;5081090;28;20028;-32
2023/09/01 11:09:23;;;;;;;2.47;1.35;;;;;;;26.88;43.21;96837.66;5084547;28;21057;-31
2023/09/01 11:11:51;;;;;;;3.22;1.77;;;;;;;26.97;43.06;96831.75;5080137;28;20020;-30
2023/09/01 11:14:20;;;;;;;2.42;1.50;;;;;;;27.10;42.46;96836.63;5082771;28;20043;-30
2023/09/01 11:16:46;;;;;;;6.00;1.48;;;;;;;27.00;42.59;96832.72;5081638;28;20042;-30
2023/09/01 11:19:11;;;;;;;3.65;1.40;;;;;;;26.91;42.09;96830.31;5082134;28;20145;-30
2023/09/01 11:21:37;;;;;;;3.78;1.30;;;;;;;26.95;42.12;96830.78;5082632;28;20028;-30
2023/09/01 11:24:06;;;;;;;3.00;1.30;;;;;;;27.09;41.66;96824.00;5082172;28;20028;-32
2023/09/01 11:26:32;;;;;;;3.00;1.58;;;;;;;27.06;41.76;96823.03;5074401;28;20020;-30
2023/09/01 11:28:59;;;;;;;3.88;1.38;;;;;;;26.96;41.67;96821.13;5081879;28;20111;-31
2023/09/01 11:31:37;;;;;;;3.15;1.10;;;;;;;27.04;40.93;96827.63;5082021;28;20020;-30
2023/09/01 11:34:02;;;;;;;5.03;1.65;;;;;;;27.04;40.98;96822.06;5078979;28;20477;-30